Time;durP1;ratioP1;P1;durP2;ratioP2;P2;SDS_P1;SDS_P2;PMS_P1;PMS_P2;Temp;Humidity;BMP_temperature;BMP_pressure;BME280_temperature;BME280_humidity;BME280_pressure;Samples;Min_cycle;Max_cycle;Signal;HPM_P1;HPM_P2
2022/11/17 00:01:06;;;;;;;0.20;0.20;;;;;;;10.80;81.63;98562.50;5130226;28;20050;-79
2022/11/17 00:03:36;;;;;;;0.40;0.40;;;;;;;10.78;81.89;98559.16;5136314;28;20042;-78
2022/11/17 00:06:07;;;;;;;0.20;0.20;;;;;;;10.81;82.05;98548.47;5132500;28;20038;-79
2022/11/17 00:08:37;;;;;;;0.57;0.57;;;;;;;10.77;81.71;98555.69;5119940;28;20113;-80
2022/11/17 00:11:08;;;;;;;0.40;0.40;;;;;;;10.80;80.99;98536.28;5115125;28;20053;-80
2022/11/17 00:16:27;;;;;;;0.30;0.30;;;;;;;10.68;82.97;98525.63;5136164;28;20041;-81
2022/11/17 00:21:47;;;;;;;0.30;0.30;;;;;;;10.76;81.85;98521.69;5138158;28;20066;-79
2022/11/17 00:24:18;;;;;;;1.65;1.55;;;;;;;10.63;83.15;98514.56;5138478;28;20126;-80
2022/11/17 00:27:00;;;;;;;0.43;0.43;;;;;;;10.67;83.29;98505.59;5134245;28;20574;-80
2022/11/17 00:29:31;;;;;;;0.20;0.20;;;;;;;10.69;82.97;98500.25;5139682;28;20386;-79
2022/11/17 00:34:51;;;;;;;1.27;1.10;;;;;;;10.65;83.16;98481.22;5138974;28;20039;-79
2022/11/17 00:37:22;;;;;;;0.47;0.47;;;;;;;10.84;82.55;98464.34;5140822;28;20520;-78
2022/11/17 00:39:52;;;;;;;0.30;0.30;;;;;;;10.77;82.30;98458.63;5132364;28;20035;-80
2022/11/17 00:42:23;;;;;;;0.63;0.63;;;;;;;10.85;82.11;98450.28;5158583;28;20045;-79
2022/11/17 00:44:53;;;;;;;0.38;0.38;;;;;;;10.81;82.42;98454.88;5128546;28;20046;-79
2022/11/17 00:47:24;;;;;;;0.28;0.28;;;;;;;10.82;81.97;98439.97;5123870;28;20034;-79
2022/11/17 00:49:54;;;;;;;0.20;0.20;;;;;;;10.62;83.22;98455.19;5123017;28;20042;-79
2022/11/17 00:52:25;;;;;;;1.13;1.02;;;;;;;10.72;83.61;98444.97;5109263;29;20038;-79
2022/11/17 00:54:55;;;;;;;0.20;0.20;;;;;;;10.80;82.64;98453.19;5126047;28;20035;-81
2022/11/17 00:57:25;;;;;;;0.50;0.50;;;;;;;10.65;83.62;98441.91;5142633;28;20030;-81
2022/11/17 00:59:56;;;;;;;0.30;0.30;;;;;;;10.79;82.63;98432.28;5129966;28;20033;-78
2022/11/17 01:02:26;;;;;;;2.00;1.25;;;;;;;10.77;82.86;98436.81;5124483;28;20093;-79
2022/11/17 01:04:57;;;;;;;0.30;0.30;;;;;;;10.89;82.33;98425.50;5141403;28;20034;-79
2022/11/17 01:07:27;;;;;;;0.30;0.30;;;;;;;10.82;82.12;98414.59;5130404;28;20023;-81
2022/11/17 01:09:58;;;;;;;0.30;0.30;;;;;;;10.77;82.31;98414.03;5145486;28;20505;-79
2022/11/17 01:12:28;;;;;;;0.20;0.20;;;;;;;10.67;83.97;98407.69;5125034;28;20464;-81
2022/11/17 01:14:59;;;;;;;0.40;0.40;;;;;;;10.66;83.81;98414.75;5147519;28;20117;-79
2022/11/17 01:17:29;;;;;;;0.30;0.30;;;;;;;10.70;83.28;98405.72;5137891;28;20069;-79
2022/11/17 01:20:00;;;;;;;0.25;0.25;;;;;;;10.65;83.88;98392.06;5139680;28;20624;-80
2022/11/17 01:22:30;;;;;;;0.77;0.77;;;;;;;10.61;83.76;98389.75;5095992;29;20485;-79
2022/11/17 01:25:01;;;;;;;0.30;0.30;;;;;;;10.71;84.09;98389.03;5101222;28;20440;-80
2022/11/17 01:27:31;;;;;;;0.98;0.52;;;;;;;10.71;83.77;98390.84;5124251;28;20030;-80
2022/11/17 01:30:03;;;;;;;0.20;0.20;;;;;;;10.73;83.09;98375.84;5124529;28;20038;-80
2022/11/17 01:32:33;;;;;;;12.45;0.85;;;;;;;10.77;82.71;98373.88;5124059;28;20069;-80
2022/11/17 01:35:04;;;;;;;0.40;0.40;;;;;;;10.66;83.31;98375.41;5130034;28;20066;-80
2022/11/17 01:37:35;;;;;;;0.30;0.30;;;;;;;10.65;83.66;98365.84;5124790;28;20030;-79
2022/11/17 01:40:06;;;;;;;0.50;0.50;;;;;;;10.67;83.37;98374.47;5139971;28;20037;-79
2022/11/17 01:42:37;;;;;;;0.45;0.45;;;;;;;10.55;83.95;98373.47;5122351;28;20114;-78
2022/11/17 01:45:22;;;;;;;0.50;0.50;;;;;;;10.71;82.93;98367.22;5107246;28;20119;-79
2022/11/17 01:48:00;;;;;;;0.30;0.30;;;;;;;10.77;81.95;98356.34;5143798;28;20062;-79
2022/11/17 01:50:39;;;;;;;0.20;0.20;;;;;;;10.74;82.19;98364.44;5123390;28;20050;-82
2022/11/17 01:53:14;;;;;;;0.30;0.30;;;;;;;10.83;82.01;98352.47;5142527;28;20079;-81
2022/11/17 01:55:55;;;;;;;0.30;0.30;;;;;;;10.80;82.61;98358.78;5120066;28;20055;-79
2022/11/17 01:58:40;;;;;;;0.20;0.20;;;;;;;10.76;82.72;98353.81;5121149;28;20118;-78
2022/11/17 02:01:10;;;;;;;0.20;0.20;;;;;;;10.70;83.13;98340.16;5129618;28;20099;-79
2022/11/17 02:03:46;;;;;;;0.20;0.20;;;;;;;10.71;82.90;98348.88;5126575;28;20125;-79
2022/11/17 02:06:43;;;;;;;0.85;0.85;;;;;;;10.71;82.81;98349.69;5145290;28;20067;-79
2022/11/17 02:09:14;;;;;;;0.30;0.30;;;;;;;10.83;82.03;98327.06;5141954;28;20501;-79
2022/11/17 02:11:46;;;;;;;0.30;0.30;;;;;;;10.71;83.15;98335.75;5124800;28;20043;-79
2022/11/17 02:14:16;;;;;;;0.20;0.20;;;;;;;10.73;83.02;98325.16;5143493;28;20041;-79
2022/11/17 02:16:47;;;;;;;0.30;0.30;;;;;;;10.78;82.26;98326.53;5126591;28;20035;-81
2022/11/17 02:19:20;;;;;;;0.35;0.35;;;;;;;10.84;81.79;98322.69;5143119;28;20054;-79
2022/11/17 02:22:08;;;;;;;0.50;0.50;;;;;;;10.79;82.28;98322.13;5141228;28;20042;-80
2022/11/17 02:25:15;;;;;;;0.20;0.20;;;;;;;10.83;81.47;98310.50;5129388;28;20034;-79
2022/11/17 02:27:53;;;;;;;0.20;0.20;;;;;;;10.82;82.25;98303.56;5139349;28;20633;-79
2022/11/17 02:30:33;;;;;;;0.30;0.30;;;;;;;10.93;81.46;98303.69;5105564;28;20043;-79
2022/11/17 02:33:20;;;;;;;0.30;0.30;;;;;;;10.88;82.17;98287.41;5091422;28;20064;-79
2022/11/17 02:35:55;;;;;;;0.65;0.65;;;;;;;10.93;82.82;98285.34;5142471;28;20047;-80
2022/11/17 02:38:34;;;;;;;0.30;0.30;;;;;;;10.80;82.90;98284.47;5126169;28;20501;-80
2022/11/17 02:41:15;;;;;;;0.20;0.20;;;;;;;10.81;82.70;98276.50;5141272;28;20046;-80
2022/11/17 02:44:04;;;;;;;0.60;0.60;;;;;;;10.93;81.95;98274.84;5143775;28;20087;-80
2022/11/17 02:51:54;;;;;;;0.50;0.50;;;;;;;10.76;83.58;98254.16;5188113;28;20045;-87
2022/11/17 02:54:28;;;;;;;0.22;0.22;;;;;;;10.85;82.61;98262.22;5142886;28;20113;-87
2022/11/17 02:56:59;;;;;;;0.30;0.30;;;;;;;10.70;83.74;98268.50;5144287;28;20046;-86
2022/11/17 02:59:34;;;;;;;0.85;0.63;;;;;;;10.78;83.09;98265.38;5164972;28;20049;-86
2022/11/17 03:02:07;;;;;;;0.30;0.30;;;;;;;10.90;82.32;98256.69;5143574;28;20038;-85
2022/11/17 03:04:53;;;;;;;;;;;;;;;10.86;83.25;98255.22;5165992;28;20037;-86
2022/11/17 03:07:44;;;;;;;0.20;0.20;;;;;;;10.95;82.30;98253.75;5131473;28;19926;-86
2022/11/17 03:10:33;;;;;;;0.20;0.20;;;;;;;10.85;83.24;98256.16;5110500;28;20046;-87
2022/11/17 03:13:03;;;;;;;0.30;0.30;;;;;;;10.84;83.00;98249.22;5130527;28;20510;-86
2022/11/17 03:15:54;;;;;;;0.25;0.25;;;;;;;10.88;82.49;98240.19;5138981;28;20038;-86
2022/11/17 03:18:24;;;;;;;0.30;0.30;;;;;;;10.75;83.82;98245.44;5168356;28;20026;-85
2022/11/17 03:21:01;;;;;;;0.47;0.47;;;;;;;10.80;83.92;98242.50;5163323;28;20064;-87
2022/11/17 03:23:34;;;;;;;0.30;0.30;;;;;;;10.80;83.36;98238.09;5163205;28;20064;-86
2022/11/17 03:26:07;;;;;;;;;;;;;;;10.91;82.59;98223.44;5141601;28;20050;-85
2022/11/17 03:28:40;;;;;;;0.20;0.20;;;;;;;10.88;82.67;98229.69;5130942;28;20402;-86
2022/11/17 03:31:13;;;;;;;0.30;0.30;;;;;;;10.85;83.26;98219.44;5178135;28;20125;-86
2022/11/17 03:33:47;;;;;;;0.40;0.40;;;;;;;10.94;83.03;98212.69;5165868;28;20041;-85
2022/11/17 03:36:24;;;;;;;0.22;0.22;;;;;;;10.96;83.02;98198.53;5180466;28;20038;-86
2022/11/17 03:39:11;;;;;;;0.20;0.20;;;;;;;10.82;83.43;98193.41;5166655;28;20558;-86
2022/11/17 03:41:45;;;;;;;0.68;0.68;;;;;;;10.84;83.34;98196.75;5167300;28;20133;-86
2022/11/17 03:44:19;;;;;;;1.38;1.27;;;;;;;10.80;83.35;98196.13;5161182;28;20029;-87
2022/11/17 03:46:54;;;;;;;0.45;0.45;;;;;;;10.85;82.77;98196.66;5163793;28;20058;-86
2022/11/17 03:49:25;;;;;;;0.30;0.30;;;;;;;10.81;83.26;98192.56;5187625;28;20190;-87
2022/11/17 03:51:55;;;;;;;0.95;0.95;;;;;;;10.91;82.12;98184.91;5147060;28;20054;-86
2022/11/17 03:54:26;;;;;;;0.30;0.30;;;;;;;10.93;82.18;98179.53;5150308;28;20033;-87
2022/11/17 03:57:02;;;;;;;0.40;0.40;;;;;;;10.95;82.92;98178.47;5164293;28;20161;-86
2022/11/17 03:59:41;;;;;;;0.50;0.50;;;;;;;10.94;81.82;98175.97;5181791;28;20034;-86
2022/11/17 04:02:16;;;;;;;0.20;0.20;;;;;;;10.93;82.09;98172.53;5146680;28;20527;-86
2022/11/17 04:05:05;;;;;;;0.40;0.40;;;;;;;10.85;82.61;98175.66;5139735;28;20030;-86
2022/11/17 04:07:41;;;;;;;0.20;0.20;;;;;;;10.76;82.46;98172.84;5146731;28;20066;-86
2022/11/17 04:10:14;;;;;;;0.20;0.20;;;;;;;10.84;82.77;98167.91;5167581;28;20144;-86
2022/11/17 04:18:25;;;;;;;0.28;0.28;;;;;;;11.02;81.82;98161.41;5179681;28;20030;-86
2022/11/17 04:20:56;;;;;;;0.25;0.25;;;;;;;10.94;81.32;98161.09;5166318;28;20046;-87
2022/11/17 04:23:27;;;;;;;0.20;0.20;;;;;;;10.99;81.48;98164.22;5131918;28;20026;-86
2022/11/17 04:28:48;;;;;;;0.20;0.20;;;;;;;10.86;81.69;98152.91;5165192;28;20034;-86
2022/11/17 04:31:23;;;;;;;0.22;0.22;;;;;;;10.94;80.79;98150.59;5169764;28;20046;-85
2022/11/17 04:33:56;;;;;;;0.20;0.20;;;;;;;10.87;81.48;98146.69;5141893;28;20037;-86
2022/11/17 04:36:35;;;;;;;0.47;0.47;;;;;;;10.80;82.02;98150.69;5148566;28;20122;-86
2022/11/17 04:39:06;;;;;;;3.90;0.73;;;;;;;10.81;81.50;98141.88;5147921;28;20113;-86
2022/11/17 04:42:00;;;;;;;0.40;0.40;;;;;;;10.89;81.60;98138.75;5162679;28;20113;-87
2022/11/17 04:44:31;;;;;;;1.05;1.05;;;;;;;10.85;81.42;98146.00;5145085;28;20571;-86
2022/11/17 04:47:02;;;;;;;0.30;0.30;;;;;;;10.87;81.01;98154.56;5166714;28;20046;-86
2022/11/17 04:49:33;;;;;;;0.47;0.47;;;;;;;10.92;81.68;98162.13;5151010;28;20140;-86
2022/11/17 04:52:03;;;;;;;0.22;0.22;;;;;;;10.83;81.61;98155.75;5148364;28;20111;-86
2022/11/17 04:54:34;;;;;;;0.20;0.20;;;;;;;10.97;81.76;98147.75;5165831;28;20037;-86
2022/11/17 04:57:04;;;;;;;0.68;0.68;;;;;;;10.91;81.62;98139.47;5162670;28;20073;-86
2022/11/17 04:59:35;;;;;;;0.20;0.20;;;;;;;10.91;82.28;98140.31;5146979;28;20107;-87
2022/11/17 05:02:06;;;;;;;0.20;0.20;;;;;;;10.94;81.48;98144.50;5145379;28;20207;-85
2022/11/17 05:04:54;;;;;;;0.30;0.30;;;;;;;10.91;82.47;98142.09;5151805;28;20061;-86
2022/11/17 05:07:26;;;;;;;0.45;0.45;;;;;;;10.96;82.06;98146.06;5160997;28;20629;-86
2022/11/17 05:09:57;;;;;;;0.25;0.25;;;;;;;10.91;83.35;98126.38;5164852;28;20034;-86
2022/11/17 05:17:03;;;;;;;1.02;1.02;;;;;;;10.93;83.36;98122.69;5178582;28;20037;-84
2022/11/17 05:18:07;;;;;;;1.75;1.48;;;;;;;10.97;83.14;98128.53;5178886;28;20085;-84
2022/11/17 05:20:37;;;;;;;4.85;1.23;;;;;;;11.03;83.25;98131.56;5152940;28;20050;-84
2022/11/17 05:25:57;;;;;;;0.40;0.40;;;;;;;11.07;82.90;98128.72;5163245;28;20500;-84
2022/11/17 05:28:30;;;;;;;0.20;0.20;;;;;;;11.05;82.78;98136.72;5178123;28;20034;-84
2022/11/17 05:31:00;;;;;;;0.30;0.30;;;;;;;10.94;83.50;98126.97;5165575;28;20042;-85
2022/11/17 05:33:31;;;;;;;0.43;0.43;;;;;;;11.02;83.61;98137.78;5154452;28;20042;-84
2022/11/17 05:36:02;;;;;;;0.30;0.30;;;;;;;10.98;84.05;98130.22;5163808;28;20042;-85
2022/11/17 05:38:32;;;;;;;0.20;0.20;;;;;;;11.00;84.16;98138.81;5132176;28;20057;-83
2022/11/17 05:41:03;;;;;;;0.20;0.20;;;;;;;11.03;83.56;98149.09;5167846;28;20029;-83
2022/11/17 05:43:33;;;;;;;0.30;0.30;;;;;;;11.05;83.83;98151.59;5175539;28;20030;-85
2022/11/17 05:46:04;;;;;;;0.22;0.22;;;;;;;11.11;83.31;98141.53;5159395;28;20589;-84
2022/11/17 05:48:35;;;;;;;0.20;0.20;;;;;;;11.08;83.42;98154.03;5173018;28;20038;-86
2022/11/17 05:51:05;;;;;;;0.30;0.30;;;;;;;11.02;83.90;98152.66;5148761;28;20042;-84
2022/11/17 05:53:36;;;;;;;0.73;0.73;;;;;;;11.12;82.68;98163.34;5158090;28;20499;-85
2022/11/17 05:56:33;;;;;;;0.20;0.20;;;;;;;11.02;83.70;98177.13;5169994;28;20046;-85
2022/11/17 05:59:04;;;;;;;0.55;0.55;;;;;;;11.11;82.84;98172.19;5176314;28;20049;-84
2022/11/17 06:01:40;;;;;;;0.20;0.20;;;;;;;11.01;83.98;98170.22;5147447;28;20045;-84
2022/11/17 06:04:15;;;;;;;0.25;0.25;;;;;;;11.07;82.84;98168.94;5166116;28;20065;-85
2022/11/17 06:06:46;;;;;;;3.83;1.27;;;;;;;11.15;82.75;98168.38;5201894;28;20519;-85
2022/11/17 06:09:17;;;;;;;0.25;0.25;;;;;;;11.03;83.33;98159.59;5182552;28;20022;-85
2022/11/17 06:11:47;;;;;;;0.25;0.25;;;;;;;11.06;82.89;98164.63;5165091;28;20108;-85
2022/11/17 06:14:18;;;;;;;0.30;0.30;;;;;;;11.14;82.42;98174.59;5132032;28;20316;-86
2022/11/17 06:16:53;;;;;;;0.28;0.28;;;;;;;11.15;81.88;98185.00;5145047;28;20056;-85
2022/11/17 06:19:33;;;;;;;0.20;0.20;;;;;;;11.09;82.39;98179.31;5162034;28;20092;-85
2022/11/17 06:22:04;;;;;;;0.20;0.20;;;;;;;11.13;82.52;98181.63;5139010;28;20044;-84
2022/11/17 06:24:36;;;;;;;0.20;0.20;;;;;;;11.26;81.81;98186.00;5130250;28;20037;-85
2022/11/17 06:27:07;;;;;;;0.63;0.63;;;;;;;11.17;81.81;98183.06;5179923;28;20038;-85
2022/11/17 06:29:38;;;;;;;0.20;0.20;;;;;;;11.17;81.78;98187.50;5162124;28;20044;-87
2022/11/17 06:32:08;;;;;;;0.30;0.30;;;;;;;11.13;81.53;98175.53;5165606;28;20429;-85
2022/11/17 06:34:41;;;;;;;0.43;0.43;;;;;;;11.02;81.73;98185.00;5141359;28;20129;-85
2022/11/17 06:37:11;;;;;;;0.20;0.20;;;;;;;11.04;81.55;98177.03;5159491;28;20041;-86
2022/11/17 06:39:42;;;;;;;0.30;0.30;;;;;;;11.08;81.45;98185.50;5147770;28;20048;-84
2022/11/17 06:42:12;;;;;;;0.20;0.20;;;;;;;11.14;81.14;98183.31;5127794;28;20509;-84
2022/11/17 06:44:43;;;;;;;0.73;0.73;;;;;;;11.13;81.19;98189.50;5128026;28;20040;-85
2022/11/17 06:47:13;;;;;;;0.20;0.20;;;;;;;11.11;81.10;98195.81;5124042;28;20046;-85
2022/11/17 06:49:43;;;;;;;0.73;0.73;;;;;;;11.13;80.95;98188.66;5141602;28;20042;-85
2022/11/17 06:52:15;;;;;;;0.20;0.20;;;;;;;11.08;81.45;98193.38;5160585;28;20045;-85
2022/11/17 06:54:45;;;;;;;0.57;0.57;;;;;;;11.11;81.61;98206.31;5161276;28;20510;-85
2022/11/17 06:57:15;;;;;;;0.20;0.20;;;;;;;11.06;81.01;98197.91;5157823;28;20225;-85
2022/11/17 06:59:46;;;;;;;0.22;0.22;;;;;;;11.16;81.54;98209.44;5128591;28;20038;-85
2022/11/17 07:02:17;;;;;;;0.25;0.25;;;;;;;11.17;81.29;98209.31;5145507;28;20088;-83
2022/11/17 07:04:47;;;;;;;0.20;0.20;;;;;;;11.22;80.62;98211.63;5131614;28;20042;-82
2022/11/17 07:07:18;;;;;;;1.75;0.75;;;;;;;11.16;80.50;98222.56;5181458;28;20054;-83
2022/11/17 07:09:48;;;;;;;0.20;0.20;;;;;;;11.22;80.81;98235.25;5150521;28;20088;-84
2022/11/17 07:12:19;;;;;;;0.30;0.30;;;;;;;11.22;80.61;98231.81;5159480;28;20455;-83
2022/11/17 07:14:49;;;;;;;0.20;0.20;;;;;;;11.16;80.12;98235.69;5129682;28;20061;-83
2022/11/17 07:17:20;;;;;;;0.50;0.50;;;;;;;11.14;79.88;98246.28;5158601;28;20037;-85
2022/11/17 07:19:52;;;;;;;0.68;0.68;;;;;;;11.08;79.99;98251.13;5162221;28;21190;-84
2022/11/17 07:22:22;;;;;;;0.20;0.20;;;;;;;11.14;80.37;98240.19;5119904;28;20046;-84
2022/11/17 07:24:53;;;;;;;0.50;0.50;;;;;;;11.12;80.15;98231.56;5152224;28;20249;-84
2022/11/17 07:27:23;;;;;;;0.22;0.22;;;;;;;11.11;80.13;98241.25;5160505;28;20038;-83
2022/11/17 07:29:54;;;;;;;0.40;0.40;;;;;;;11.11;80.55;98278.00;5144402;28;20057;-84
2022/11/17 07:32:24;;;;;;;0.30;0.30;;;;;;;10.97;81.57;98285.97;5175970;28;20042;-84
2022/11/17 07:34:56;;;;;;;0.20;0.20;;;;;;;10.80;82.50;98289.72;5149796;28;20089;-83
2022/11/17 07:37:30;;;;;;;1.25;1.00;;;;;;;10.81;82.25;98275.66;5146297;28;20029;-84
2022/11/17 07:40:01;;;;;;;3.05;0.95;;;;;;;10.75;82.40;98276.06;5178905;28;20045;-83
2022/11/17 07:42:31;;;;;;;11.20;0.52;;;;;;;10.82;82.59;98274.72;5129436;28;20434;-84
2022/11/17 07:45:02;;;;;;;0.93;0.93;;;;;;;10.70;83.09;98271.97;5142381;28;20108;-85
2022/11/17 07:47:32;;;;;;;0.30;0.30;;;;;;;10.76;82.29;98275.97;5141847;28;20045;-83
2022/11/17 07:50:03;;;;;;;0.20;0.20;;;;;;;10.72;81.67;98282.38;5145418;28;20215;-84
2022/11/17 07:52:34;;;;;;;0.20;0.20;;;;;;;10.79;81.93;98275.78;5145251;28;20061;-83
2022/11/17 07:55:05;;;;;;;0.20;0.20;;;;;;;10.83;81.70;98286.88;5139423;28;20538;-84
2022/11/17 07:57:35;;;;;;;0.60;0.60;;;;;;;10.82;81.16;98287.84;5158710;28;20459;-84
2022/11/17 08:00:06;;;;;;;0.25;0.25;;;;;;;10.75;81.99;98297.88;5127309;28;20022;-83
2022/11/17 08:02:37;;;;;;;0.20;0.20;;;;;;;10.51;80.24;98306.44;5161954;28;20018;-83
2022/11/17 08:05:08;;;;;;;0.30;0.30;;;;;;;10.58;80.57;98300.81;5144324;28;20271;-84
2022/11/17 08:07:38;;;;;;;0.32;0.32;;;;;;;10.59;81.15;98300.69;5147239;28;20022;-84
2022/11/17 08:10:09;;;;;;;0.40;0.40;;;;;;;10.65;80.72;98300.28;5138911;28;20137;-84
2022/11/17 08:12:39;;;;;;;0.20;0.20;;;;;;;10.74;80.62;98305.88;5163394;28;20034;-85
2022/11/17 08:15:11;;;;;;;0.20;0.20;;;;;;;10.65;80.58;98312.56;5174058;28;20073;-84
2022/11/17 08:17:41;;;;;;;0.20;0.20;;;;;;;10.65;80.19;98310.78;5147618;28;20105;-84
2022/11/17 08:20:12;;;;;;;0.30;0.30;;;;;;;10.65;79.98;98313.41;5157422;28;20131;-83
2022/11/17 08:22:43;;;;;;;0.45;0.45;;;;;;;10.71;79.63;98306.91;5159841;28;20038;-84
2022/11/17 08:25:13;;;;;;;1.27;0.70;;;;;;;10.71;79.95;98315.59;5141901;28;20042;-84
2022/11/17 08:27:44;;;;;;;0.30;0.30;;;;;;;10.76;79.87;98309.22;5145888;28;20112;-83
2022/11/17 08:30:14;;;;;;;0.28;0.28;;;;;;;10.81;79.85;98313.22;5142047;28;20053;-84
2022/11/17 08:32:47;;;;;;;0.30;0.30;;;;;;;10.88;79.52;98313.66;5160911;28;20041;-84
2022/11/17 08:35:21;;;;;;;1.23;0.95;;;;;;;10.70;79.16;98320.97;5159674;28;20049;-84
2022/11/17 08:37:52;;;;;;;0.20;0.20;;;;;;;10.85;79.14;98321.75;5163288;28;20045;-84
2022/11/17 08:40:22;;;;;;;0.57;0.57;;;;;;;10.80;79.11;98326.44;5168289;28;20034;-84
2022/11/17 08:42:55;;;;;;;1.17;0.70;;;;;;;10.83;79.08;98323.63;5162094;28;20026;-84
2022/11/17 08:45:26;;;;;;;0.40;0.40;;;;;;;10.93;78.72;98329.94;5175960;28;20042;-83
2022/11/17 08:47:56;;;;;;;0.30;0.30;;;;;;;10.81;78.62;98339.47;5178752;28;20053;-83
2022/11/17 08:50:27;;;;;;;0.35;0.35;;;;;;;10.78;78.79;98344.91;5177117;28;20164;-84
2022/11/17 08:52:57;;;;;;;0.40;0.40;;;;;;;10.90;78.69;98340.63;5177080;28;20130;-84
2022/11/17 08:55:28;;;;;;;0.65;0.65;;;;;;;10.94;77.81;98344.75;5181392;28;20045;-83
2022/11/17 08:57:58;;;;;;;3.65;1.65;;;;;;;10.96;77.74;98349.88;5144226;28;20117;-84
2022/11/17 09:00:29;;;;;;;0.40;0.40;;;;;;;10.92;77.70;98357.13;5171691;28;20038;-86
2022/11/17 09:02:59;;;;;;;0.47;0.47;;;;;;;11.03;76.75;98359.00;5175121;28;20046;-85
2022/11/17 09:05:30;;;;;;;0.45;0.45;;;;;;;11.00;77.22;98370.56;5189992;28;20045;-87
2022/11/17 09:08:00;;;;;;;0.40;0.40;;;;;;;10.90;77.07;98361.63;5196474;28;20089;-85
2022/11/17 09:10:31;;;;;;;0.20;0.20;;;;;;;10.93;77.37;98369.28;5169674;28;20038;-84
2022/11/17 09:13:01;;;;;;;0.20;0.20;;;;;;;10.95;76.29;98372.63;5173867;28;20026;-84
2022/11/17 09:15:32;;;;;;;0.20;0.20;;;;;;;11.01;76.04;98377.50;5175390;28;20050;-85
2022/11/17 09:18:03;;;;;;;0.30;0.30;;;;;;;10.91;76.68;98368.53;5182062;28;20277;-84
2022/11/17 09:20:33;;;;;;;0.52;0.52;;;;;;;10.94;75.13;98373.59;5160367;28;20129;-83
2022/11/17 09:23:04;;;;;;;0.20;0.20;;;;;;;10.97;75.32;98362.88;5163956;28;20108;-84
2022/11/17 09:25:34;;;;;;;0.60;0.60;;;;;;;11.11;74.39;98371.63;5169252;28;20054;-86
2022/11/17 09:28:05;;;;;;;0.30;0.30;;;;;;;11.00;74.35;98380.19;5173631;28;20032;-85
2022/11/17 09:30:35;;;;;;;1.48;0.68;;;;;;;11.03;74.51;98383.47;5168339;28;20042;-84
2022/11/17 09:33:06;;;;;;;0.20;0.20;;;;;;;11.01;74.26;98390.63;5170608;28;20038;-84
2022/11/17 09:35:37;;;;;;;0.30;0.30;;;;;;;10.99;73.74;98387.25;5151428;28;20041;-84
2022/11/17 09:38:07;;;;;;;0.25;0.25;;;;;;;10.96;71.83;98395.31;5162792;28;20034;-84
2022/11/17 09:40:39;;;;;;;0.30;0.30;;;;;;;10.97;72.61;98401.41;5162613;28;20046;-84
2022/11/17 09:43:32;;;;;;;0.45;0.45;;;;;;;11.03;70.98;98399.19;5149998;28;20136;-84
2022/11/17 09:46:17;;;;;;;0.30;0.30;;;;;;;11.07;71.92;98404.25;5152568;28;20037;-84
2022/11/17 09:48:57;;;;;;;0.20;0.20;;;;;;;11.02;70.27;98413.28;5148645;28;20295;-84
2022/11/17 09:51:32;;;;;;;0.30;0.30;;;;;;;10.99;70.11;98413.47;5140603;28;20045;-84
2022/11/17 09:54:14;;;;;;;0.20;0.20;;;;;;;10.99;70.38;98415.28;5126401;28;20026;-83
2022/11/17 09:56:46;;;;;;;1.15;0.73;;;;;;;11.09;70.09;98403.22;5165588;28;20517;-84
2022/11/17 09:59:19;;;;;;;0.20;0.20;;;;;;;11.06;70.47;98408.69;5165846;28;20045;-84
2022/11/17 10:01:50;;;;;;;0.20;0.20;;;;;;;11.06;69.45;98416.56;5142749;28;20042;-84
2022/11/17 10:04:21;;;;;;;0.28;0.28;;;;;;;11.05;69.17;98409.63;5149030;28;20308;-83
2022/11/17 10:06:52;;;;;;;0.30;0.30;;;;;;;11.11;70.03;98418.88;5148418;28;20046;-83
2022/11/17 10:09:35;;;;;;;0.20;0.20;;;;;;;11.10;69.27;98422.44;5174446;28;20041;-83
2022/11/17 10:12:19;;;;;;;0.30;0.30;;;;;;;11.21;69.20;98419.91;5167592;28;20048;-83
2022/11/17 10:14:51;;;;;;;0.20;0.20;;;;;;;11.22;68.92;98432.09;5180225;28;20014;-83
2022/11/17 10:17:21;;;;;;;0.35;0.35;;;;;;;11.25;69.20;98442.41;5179196;28;20042;-83
2022/11/17 10:19:52;;;;;;;0.30;0.30;;;;;;;11.25;69.56;98441.56;5186936;28;20092;-82
2022/11/17 10:22:35;;;;;;;0.20;0.20;;;;;;;11.26;69.72;98449.34;5178730;28;20109;-83
2022/11/17 10:25:37;;;;;;;0.30;0.30;;;;;;;11.24;69.69;98453.03;5145856;28;20117;-83
2022/11/17 10:28:22;;;;;;;0.35;0.35;;;;;;;11.40;69.23;98455.47;5159684;28;20033;-83
2022/11/17 10:30:59;;;;;;;0.20;0.20;;;;;;;11.34;69.82;98462.81;5123997;28;20705;-83
2022/11/17 10:33:45;;;;;;;0.40;0.40;;;;;;;11.39;69.97;98465.13;5162781;28;20688;-83
2022/11/17 10:36:22;;;;;;;0.20;0.20;;;;;;;11.39;68.91;98478.25;5176313;28;20088;-82
2022/11/17 10:38:55;;;;;;;0.28;0.28;;;;;;;11.40;69.54;98465.97;5159912;28;20931;-83
2022/11/17 10:41:27;;;;;;;0.30;0.30;;;;;;;11.34;68.27;98462.81;5127210;28;20141;-83
2022/11/17 10:44:21;;;;;;;0.20;0.20;;;;;;;11.48;68.68;98468.91;5164355;28;20519;-82
2022/11/17 10:46:53;;;;;;;0.20;0.20;;;;;;;11.36;68.43;98464.50;5163860;28;20053;-83
2022/11/17 10:49:31;;;;;;;0.25;0.25;;;;;;;11.41;68.44;98468.47;5158607;28;20350;-82
2022/11/17 10:52:22;;;;;;;0.20;0.20;;;;;;;11.41;68.39;98478.16;5158948;28;20125;-83
2022/11/17 10:55:16;;;;;;;0.20;0.20;;;;;;;11.44;69.16;98475.34;5151949;28;20121;-83
2022/11/17 10:57:50;;;;;;;0.30;0.30;;;;;;;11.49;69.53;98465.34;5148161;28;20030;-84
2022/11/17 11:00:33;;;;;;;0.35;0.35;;;;;;;11.52;68.64;98474.81;5149041;28;20129;-84
2022/11/17 11:03:21;;;;;;;0.30;0.30;;;;;;;11.49;68.48;98467.97;5177198;28;20079;-85
2022/11/17 11:05:54;;;;;;;1.00;1.00;;;;;;;11.45;68.28;98475.22;5165497;28;20046;-85
2022/11/17 11:08:27;;;;;;;;;;;;;;;11.55;68.84;98469.34;5168796;28;20060;-85
2022/11/17 11:10:59;;;;;;;0.63;0.63;;;;;;;11.59;68.83;98474.31;5152879;28;20845;-85
2022/11/17 11:13:47;;;;;;;0.57;0.57;;;;;;;11.60;68.91;98470.72;5163477;28;20096;-85
2022/11/17 11:16:18;;;;;;;4.22;0.60;;;;;;;11.56;68.95;98476.28;5178590;28;20045;-84
2022/11/17 11:18:50;;;;;;;0.20;0.20;;;;;;;11.66;67.95;98477.34;5163066;28;20034;-83
2022/11/17 11:21:55;;;;;;;0.20;0.20;;;;;;;11.67;67.64;98475.56;5161949;28;20534;-84
2022/11/17 11:24:43;;;;;;;0.20;0.20;;;;;;;11.68;67.65;98490.38;5144953;28;20084;-84
2022/11/17 11:27:50;;;;;;;0.20;0.20;;;;;;;11.73;67.54;98478.63;5161595;28;20081;-83
2022/11/17 11:30:21;;;;;;;0.68;0.68;;;;;;;11.74;67.70;98495.22;5159346;28;20109;-84
2022/11/17 11:33:03;;;;;;;1.38;0.82;;;;;;;11.71;66.99;98490.16;5177956;28;20309;-83
2022/11/17 11:35:49;;;;;;;0.30;0.30;;;;;;;11.76;67.87;98493.34;5139847;28;20046;-84
2022/11/17 11:38:34;;;;;;;0.20;0.20;;;;;;;11.72;67.30;98499.72;5147861;28;20052;-84
2022/11/17 11:41:04;;;;;;;0.60;0.60;;;;;;;11.76;67.29;98509.09;5157794;28;20057;-83
2022/11/17 11:43:51;;;;;;;0.30;0.30;;;;;;;11.78;66.65;98512.44;5148544;28;20025;-84
2022/11/17 11:46:41;;;;;;;0.20;0.20;;;;;;;11.80;67.33;98500.91;5166336;28;20045;-83
2022/11/17 11:49:26;;;;;;;0.20;0.20;;;;;;;11.87;67.27;98496.06;5144977;28;20038;-83
2022/11/17 11:51:59;;;;;;;2.70;1.30;;;;;;;11.90;66.63;98514.25;5177886;28;20067;-84
2022/11/17 11:54:49;;;;;;;0.30;0.30;;;;;;;11.82;65.81;98513.94;5166299;28;20082;-83
2022/11/17 11:57:34;;;;;;;0.20;0.20;;;;;;;11.80;64.89;98521.06;5177054;28;20327;-82
2022/11/17 12:00:12;;;;;;;0.20;0.20;;;;;;;11.86;65.90;98512.75;5158379;28;20025;-84
2022/11/17 12:02:46;;;;;;;0.20;0.20;;;;;;;11.87;65.52;98511.00;5161105;28;20074;-84
2022/11/17 12:05:20;;;;;;;0.35;0.35;;;;;;;11.83;66.14;98515.63;5144416;28;20042;-83
2022/11/17 12:08:09;;;;;;;0.20;0.20;;;;;;;11.82;65.81;98509.50;5159629;28;20059;-84
2022/11/17 12:10:48;;;;;;;0.30;0.30;;;;;;;11.79;66.61;98514.13;5146796;28;20046;-84
2022/11/17 12:13:22;;;;;;;0.30;0.30;;;;;;;11.84;66.76;98511.19;5158419;28;20507;-84
2022/11/17 12:16:16;;;;;;;0.20;0.20;;;;;;;11.83;65.60;98515.63;5164242;28;20101;-85
2022/11/17 12:18:46;;;;;;;0.20;0.20;;;;;;;11.77;64.44;98508.97;5167740;28;20038;-85
2022/11/17 12:21:24;;;;;;;0.20;0.20;;;;;;;11.87;65.88;98511.81;5164060;28;20257;-84
2022/11/17 12:24:15;;;;;;;0.20;0.20;;;;;;;11.85;64.22;98515.50;5167077;28;20084;-86
2022/11/17 12:26:46;;;;;;;0.30;0.30;;;;;;;11.86;65.58;98515.38;5161189;28;20038;-85
2022/11/17 12:29:20;;;;;;;0.20;0.20;;;;;;;11.90;64.60;98513.44;5164427;28;20457;-83
2022/11/17 12:31:55;;;;;;;0.20;0.20;;;;;;;11.84;64.39;98524.31;5152186;28;20042;-85
2022/11/17 12:34:29;;;;;;;0.22;0.22;;;;;;;11.78;63.09;98522.94;5148778;28;20526;-83
2022/11/17 12:37:06;;;;;;;0.25;0.25;;;;;;;11.76;63.45;98519.59;5174530;28;20042;-85